sensor_id;sensor_type;location;lat;lon;timestamp;P1;durP1;ratioP1;P2;durP2;ratioP2
17177;SDS011;8704;52.006;4.374;2023-09-30T00:01:51;12.60;;;6.60;;
17177;SDS011;8704;52.006;4.374;2023-09-30T00:04:19;10.15;;;5.68;;
17177;SDS011;8704;52.006;4.374;2023-09-30T00:06:47;18.08;;;6.65;;
17177;SDS011;8704;52.006;4.374;2023-09-30T00:09:15;10.90;;;6.65;;
17177;SDS011;8704;52.006;4.374;2023-09-30T00:11:43;12.73;;;7.13;;
17177;SDS011;8704;52.006;4.374;2023-09-30T00:14:11;12.23;;;6.53;;
17177;SDS011;8704;52.006;4.374;2023-09-30T00:16:41;14.52;;;7.00;;
17177;SDS011;8704;52.006;4.374;2023-09-30T00:19:09;13.50;;;7.07;;
17177;SDS011;8704;52.006;4.374;2023-09-30T00:21:37;12.73;;;6.35;;
17177;SDS011;8704;52.006;4.374;2023-09-30T00:24:06;14.98;;;6.80;;
17177;SDS011;8704;52.006;4.374;2023-09-30T00:26:34;13.65;;;6.72;;
17177;SDS011;8704;52.006;4.374;2023-09-30T00:29:02;9.75;;;5.97;;
17177;SDS011;8704;52.006;4.374;2023-09-30T00:31:31;11.85;;;6.05;;
17177;SDS011;8704;52.006;4.374;2023-09-30T00:34:01;11.38;;;6.03;;
17177;SDS011;8704;52.006;4.374;2023-09-30T00:36:29;12.00;;;5.53;;
17177;SDS011;8704;52.006;4.374;2023-09-30T00:38:57;13.05;;;6.40;;
17177;SDS011;8704;52.006;4.374;2023-09-30T00:41:25;12.10;;;6.10;;
17177;SDS011;8704;52.006;4.374;2023-09-30T00:43:53;12.98;;;6.38;;
17177;SDS011;8704;52.006;4.374;2023-09-30T00:46:25;13.63;;;6.13;;
17177;SDS011;8704;52.006;4.374;2023-09-30T00:48:54;12.50;;;6.15;;
17177;SDS011;8704;52.006;4.374;2023-09-30T00:51:26;13.07;;;6.03;;
17177;SDS011;8704;52.006;4.374;2023-09-30T00:53:55;15.88;;;6.32;;
17177;SDS011;8704;52.006;4.374;2023-09-30T00:56:27;11.32;;;6.72;;
17177;SDS011;8704;52.006;4.374;2023-09-30T00:58:57;12.50;;;5.72;;
17177;SDS011;8704;52.006;4.374;2023-09-30T01:01:26;10.73;;;6.57;;
17177;SDS011;8704;52.006;4.374;2023-09-30T01:03:54;12.70;;;6.47;;
17177;SDS011;8704;52.006;4.374;2023-09-30T01:06:23;13.77;;;6.88;;
17177;SDS011;8704;52.006;4.374;2023-09-30T01:08:53;12.10;;;6.18;;
17177;SDS011;8704;52.006;4.374;2023-09-30T01:11:21;9.30;;;6.57;;
17177;SDS011;8704;52.006;4.374;2023-09-30T01:13:49;11.88;;;6.57;;
17177;SDS011;8704;52.006;4.374;2023-09-30T01:16:17;12.15;;;6.47;;
17177;SDS011;8704;52.006;4.374;2023-09-30T01:18:45;15.88;;;7.63;;
17177;SDS011;8704;52.006;4.374;2023-09-30T01:21:14;13.63;;;6.82;;
17177;SDS011;8704;52.006;4.374;2023-09-30T01:23:43;11.10;;;7.40;;
17177;SDS011;8704;52.006;4.374;2023-09-30T01:26:12;18.65;;;7.20;;
17177;SDS011;8704;52.006;4.374;2023-09-30T01:28:41;15.15;;;8.30;;
17177;SDS011;8704;52.006;4.374;2023-09-30T01:31:10;13.13;;;7.80;;
17177;SDS011;8704;52.006;4.374;2023-09-30T01:33:38;19.60;;;7.88;;
17177;SDS011;8704;52.006;4.374;2023-09-30T01:36:06;15.70;;;7.10;;
17177;SDS011;8704;52.006;4.374;2023-09-30T01:38:34;13.00;;;8.07;;
17177;SDS011;8704;52.006;4.374;2023-09-30T01:41:04;14.35;;;7.32;;
17177;SDS011;8704;52.006;4.374;2023-09-30T01:43:32;20.23;;;9.40;;
17177;SDS011;8704;52.006;4.374;2023-09-30T01:46:01;14.10;;;8.70;;
17177;SDS011;8704;52.006;4.374;2023-09-30T01:48:31;13.95;;;8.70;;
17177;SDS011;8704;52.006;4.374;2023-09-30T01:50:59;16.23;;;9.55;;
17177;SDS011;8704;52.006;4.374;2023-09-30T01:53:27;16.65;;;9.57;;
17177;SDS011;8704;52.006;4.374;2023-09-30T01:55:56;17.45;;;9.20;;
17177;SDS011;8704;52.006;4.374;2023-09-30T01:58:25;17.35;;;9.02;;
17177;SDS011;8704;52.006;4.374;2023-09-30T02:00:53;18.13;;;11.15;;
17177;SDS011;8704;52.006;4.374;2023-09-30T02:03:21;15.75;;;10.90;;
17177;SDS011;8704;52.006;4.374;2023-09-30T02:05:50;16.23;;;10.25;;
17177;SDS011;8704;52.006;4.374;2023-09-30T02:08:18;19.00;;;11.02;;
17177;SDS011;8704;52.006;4.374;2023-09-30T02:10:46;17.70;;;11.25;;
17177;SDS011;8704;52.006;4.374;2023-09-30T02:13:14;17.80;;;10.63;;
17177;SDS011;8704;52.006;4.374;2023-09-30T02:15:47;17.20;;;10.77;;
17177;SDS011;8704;52.006;4.374;2023-09-30T02:18:15;15.88;;;10.75;;
17177;SDS011;8704;52.006;4.374;2023-09-30T02:20:44;18.17;;;11.32;;
17177;SDS011;8704;52.006;4.374;2023-09-30T02:23:12;17.90;;;11.13;;
17177;SDS011;8704;52.006;4.374;2023-09-30T02:25:42;17.35;;;12.63;;
17177;SDS011;8704;52.006;4.374;2023-09-30T02:28:10;19.98;;;11.45;;
17177;SDS011;8704;52.006;4.374;2023-09-30T02:30:39;21.38;;;12.52;;
17177;SDS011;8704;52.006;4.374;2023-09-30T02:33:08;19.27;;;12.82;;
17177;SDS011;8704;52.006;4.374;2023-09-30T02:35:37;21.30;;;12.63;;
17177;SDS011;8704;52.006;4.374;2023-09-30T02:38:05;19.35;;;12.68;;
17177;SDS011;8704;52.006;4.374;2023-09-30T02:40:34;13.80;;;11.18;;
17177;SDS011;8704;52.006;4.374;2023-09-30T02:43:02;17.85;;;11.80;;
17177;SDS011;8704;52.006;4.374;2023-09-30T02:45:31;17.92;;;12.23;;
17177;SDS011;8704;52.006;4.374;2023-09-30T02:47:59;19.13;;;12.07;;
17177;SDS011;8704;52.006;4.374;2023-09-30T02:50:28;16.67;;;12.27;;
17177;SDS011;8704;52.006;4.374;2023-09-30T02:52:56;22.85;;;14.00;;
17177;SDS011;8704;52.006;4.374;2023-09-30T02:55:24;22.08;;;14.05;;
17177;SDS011;8704;52.006;4.374;2023-09-30T02:57:52;20.60;;;14.52;;
17177;SDS011;8704;52.006;4.374;2023-09-30T03:00:21;22.30;;;14.73;;
17177;SDS011;8704;52.006;4.374;2023-09-30T03:02:51;18.13;;;14.02;;
17177;SDS011;8704;52.006;4.374;2023-09-30T03:05:20;27.55;;;15.65;;
17177;SDS011;8704;52.006;4.374;2023-09-30T03:07:49;19.67;;;15.85;;
17177;SDS011;8704;52.006;4.374;2023-09-30T03:10:18;19.27;;;15.02;;
17177;SDS011;8704;52.006;4.374;2023-09-30T03:12:50;25.67;;;16.45;;
17177;SDS011;8704;52.006;4.374;2023-09-30T03:15:18;26.75;;;17.77;;
17177;SDS011;8704;52.006;4.374;2023-09-30T03:17:47;29.65;;;17.70;;
17177;SDS011;8704;52.006;4.374;2023-09-30T03:22:49;23.20;;;16.67;;
17177;SDS011;8704;52.006;4.374;2023-09-30T03:25:18;23.13;;;15.27;;
17177;SDS011;8704;52.006;4.374;2023-09-30T03:27:48;22.08;;;16.13;;
17177;SDS011;8704;52.006;4.374;2023-09-30T03:30:17;24.80;;;17.85;;
17177;SDS011;8704;52.006;4.374;2023-09-30T03:32:46;29.15;;;21.38;;
17177;SDS011;8704;52.006;4.374;2023-09-30T03:35:15;29.63;;;19.92;;
17177;SDS011;8704;52.006;4.374;2023-09-30T03:37:44;25.30;;;20.27;;
17177;SDS011;8704;52.006;4.374;2023-09-30T03:40:15;23.58;;;19.00;;
17177;SDS011;8704;52.006;4.374;2023-09-30T03:42:47;32.28;;;19.65;;
17177;SDS011;8704;52.006;4.374;2023-09-30T03:45:16;24.88;;;18.95;;
17177;SDS011;8704;52.006;4.374;2023-09-30T03:47:45;24.10;;;18.77;;
17177;SDS011;8704;52.006;4.374;2023-09-30T03:50:15;26.48;;;17.45;;
17177;SDS011;8704;52.006;4.374;2023-09-30T03:52:43;24.70;;;19.30;;
17177;SDS011;8704;52.006;4.374;2023-09-30T03:55:15;24.75;;;17.83;;
17177;SDS011;8704;52.006;4.374;2023-09-30T03:57:47;27.48;;;18.90;;
17177;SDS011;8704;52.006;4.374;2023-09-30T04:00:16;24.80;;;18.05;;
17177;SDS011;8704;52.006;4.374;2023-09-30T04:02:47;23.00;;;17.98;;
17177;SDS011;8704;52.006;4.374;2023-09-30T04:05:17;31.17;;;20.10;;
17177;SDS011;8704;52.006;4.374;2023-09-30T04:07:46;26.65;;;20.27;;
17177;SDS011;8704;52.006;4.374;2023-09-30T04:10:16;30.15;;;20.85;;
17177;SDS011;8704;52.006;4.374;2023-09-30T04:12:47;27.58;;;18.65;;
17177;SDS011;8704;52.006;4.374;2023-09-30T04:15:15;28.63;;;18.80;;
17177;SDS011;8704;52.006;4.374;2023-09-30T04:17:43;29.13;;;20.25;;
17177;SDS011;8704;52.006;4.374;2023-09-30T04:20:11;23.02;;;19.00;;
17177;SDS011;8704;52.006;4.374;2023-09-30T04:22:49;23.85;;;18.23;;
17177;SDS011;8704;52.006;4.374;2023-09-30T04:25:19;32.00;;;19.38;;
17177;SDS011;8704;52.006;4.374;2023-09-30T04:27:47;23.38;;;18.92;;
17177;SDS011;8704;52.006;4.374;2023-09-30T04:30:15;31.17;;;20.30;;
17177;SDS011;8704;52.006;4.374;2023-09-30T04:32:45;27.48;;;21.48;;
17177;SDS011;8704;52.006;4.374;2023-09-30T04:35:13;31.08;;;22.40;;
17177;SDS011;8704;52.006;4.374;2023-09-30T04:37:41;27.50;;;21.23;;
17177;SDS011;8704;52.006;4.374;2023-09-30T04:40:10;26.10;;;20.35;;
17177;SDS011;8704;52.006;4.374;2023-09-30T04:42:44;29.25;;;21.33;;
17177;SDS011;8704;52.006;4.374;2023-09-30T04:45:13;26.48;;;21.20;;
17177;SDS011;8704;52.006;4.374;2023-09-30T04:47:43;22.75;;;18.63;;
17177;SDS011;8704;52.006;4.374;2023-09-30T04:50:12;28.40;;;19.20;;
17177;SDS011;8704;52.006;4.374;2023-09-30T04:52:42;32.33;;;21.75;;
17177;SDS011;8704;52.006;4.374;2023-09-30T04:55:12;28.40;;;22.20;;
17177;SDS011;8704;52.006;4.374;2023-09-30T04:57:44;29.65;;;22.77;;
17177;SDS011;8704;52.006;4.374;2023-09-30T05:00:14;36.10;;;25.75;;
17177;SDS011;8704;52.006;4.374;2023-09-30T05:02:44;28.63;;;23.35;;
17177;SDS011;8704;52.006;4.374;2023-09-30T05:05:13;35.03;;;25.50;;
17177;SDS011;8704;52.006;4.374;2023-09-30T05:07:42;30.42;;;24.23;;
17177;SDS011;8704;52.006;4.374;2023-09-30T05:10:10;25.50;;;21.13;;
17177;SDS011;8704;52.006;4.374;2023-09-30T05:12:40;29.52;;;22.55;;
17177;SDS011;8704;52.006;4.374;2023-09-30T05:15:14;30.08;;;22.58;;
17177;SDS011;8704;52.006;4.374;2023-09-30T05:17:43;29.13;;;21.20;;
17177;SDS011;8704;52.006;4.374;2023-09-30T05:20:12;25.17;;;21.48;;
17177;SDS011;8704;52.006;4.374;2023-09-30T05:22:44;25.48;;;20.70;;
17177;SDS011;8704;52.006;4.374;2023-09-30T05:25:13;29.55;;;22.98;;
17177;SDS011;8704;52.006;4.374;2023-09-30T05:27:43;29.50;;;22.58;;
17177;SDS011;8704;52.006;4.374;2023-09-30T05:30:16;29.38;;;22.77;;
17177;SDS011;8704;52.006;4.374;2023-09-30T05:32:46;36.50;;;25.38;;
17177;SDS011;8704;52.006;4.374;2023-09-30T05:35:14;28.63;;;23.25;;
17177;SDS011;8704;52.006;4.374;2023-09-30T05:37:44;25.67;;;22.08;;
17177;SDS011;8704;52.006;4.374;2023-09-30T05:40:12;34.22;;;24.45;;
17177;SDS011;8704;52.006;4.374;2023-09-30T05:42:49;29.88;;;22.90;;
17177;SDS011;8704;52.006;4.374;2023-09-30T05:45:18;29.00;;;23.98;;
17177;SDS011;8704;52.006;4.374;2023-09-30T05:47:47;39.58;;;27.90;;
17177;SDS011;8704;52.006;4.374;2023-09-30T05:50:17;35.85;;;28.45;;
17177;SDS011;8704;52.006;4.374;2023-09-30T05:52:50;32.70;;;26.77;;
17177;SDS011;8704;52.006;4.374;2023-09-30T05:55:18;33.67;;;27.92;;
17177;SDS011;8704;52.006;4.374;2023-09-30T05:57:47;29.67;;;26.25;;
17177;SDS011;8704;52.006;4.374;2023-09-30T06:00:16;40.65;;;29.17;;
17177;SDS011;8704;52.006;4.374;2023-09-30T06:02:50;43.75;;;31.27;;
17177;SDS011;8704;52.006;4.374;2023-09-30T06:05:18;42.63;;;32.40;;
17177;SDS011;8704;52.006;4.374;2023-09-30T06:07:48;36.78;;;29.85;;
17177;SDS011;8704;52.006;4.374;2023-09-30T06:10:16;49.25;;;33.92;;
17177;SDS011;8704;52.006;4.374;2023-09-30T06:12:46;34.75;;;28.85;;
17177;SDS011;8704;52.006;4.374;2023-09-30T06:15:14;37.92;;;29.77;;
17177;SDS011;8704;52.006;4.374;2023-09-30T06:17:50;33.88;;;27.80;;
17177;SDS011;8704;52.006;4.374;2023-09-30T06:20:18;39.38;;;28.15;;
17177;SDS011;8704;52.006;4.374;2023-09-30T06:22:49;37.75;;;30.30;;
17177;SDS011;8704;52.006;4.374;2023-09-30T06:25:20;47.88;;;37.10;;
17177;SDS011;8704;52.006;4.374;2023-09-30T06:27:50;45.92;;;35.08;;
17177;SDS011;8704;52.006;4.374;2023-09-30T06:30:19;46.17;;;34.45;;
17177;SDS011;8704;52.006;4.374;2023-09-30T06:32:49;40.80;;;34.63;;
17177;SDS011;8704;52.006;4.374;2023-09-30T06:35:17;52.70;;;38.78;;
17177;SDS011;8704;52.006;4.374;2023-09-30T06:37:48;62.33;;;48.03;;
17177;SDS011;8704;52.006;4.374;2023-09-30T06:40:17;58.00;;;45.75;;
17177;SDS011;8704;52.006;4.374;2023-09-30T06:42:45;55.60;;;44.10;;
17177;SDS011;8704;52.006;4.374;2023-09-30T06:45:13;67.30;;;49.63;;
17177;SDS011;8704;52.006;4.374;2023-09-30T06:47:42;70.50;;;51.75;;
17177;SDS011;8704;52.006;4.374;2023-09-30T06:50:13;61.35;;;48.60;;
17177;SDS011;8704;52.006;4.374;2023-09-30T06:52:43;68.30;;;52.58;;
17177;SDS011;8704;52.006;4.374;2023-09-30T06:55:14;62.95;;;50.22;;
17177;SDS011;8704;52.006;4.374;2023-09-30T06:57:43;66.45;;;53.80;;
17177;SDS011;8704;52.006;4.374;2023-09-30T07:00:11;74.47;;;54.80;;
17177;SDS011;8704;52.006;4.374;2023-09-30T07:02:41;70.10;;;54.45;;
17177;SDS011;8704;52.006;4.374;2023-09-30T07:05:11;79.97;;;58.13;;
17177;SDS011;8704;52.006;4.374;2023-09-30T07:07:41;73.97;;;57.28;;
17177;SDS011;8704;52.006;4.374;2023-09-30T07:10:11;71.22;;;56.55;;
17177;SDS011;8704;52.006;4.374;2023-09-30T07:12:40;65.05;;;55.25;;
17177;SDS011;8704;52.006;4.374;2023-09-30T07:15:09;77.70;;;55.58;;
17177;SDS011;8704;52.006;4.374;2023-09-30T07:17:37;72.45;;;55.15;;
17177;SDS011;8704;52.006;4.374;2023-09-30T07:20:09;67.13;;;53.15;;
17177;SDS011;8704;52.006;4.374;2023-09-30T07:22:37;67.72;;;54.17;;
17177;SDS011;8704;52.006;4.374;2023-09-30T07:25:10;64.95;;;52.47;;
17177;SDS011;8704;52.006;4.374;2023-09-30T07:27:38;67.60;;;53.58;;
17177;SDS011;8704;52.006;4.374;2023-09-30T07:30:06;66.45;;;49.90;;
17177;SDS011;8704;52.006;4.374;2023-09-30T07:32:36;62.90;;;50.70;;
17177;SDS011;8704;52.006;4.374;2023-09-30T07:35:04;62.03;;;50.80;;
17177;SDS011;8704;52.006;4.374;2023-09-30T07:37:34;61.30;;;47.03;;
17177;SDS011;8704;52.006;4.374;2023-09-30T07:40:02;56.80;;;45.90;;
17177;SDS011;8704;52.006;4.374;2023-09-30T07:42:32;55.00;;;43.97;;
17177;SDS011;8704;52.006;4.374;2023-09-30T07:45:01;59.10;;;45.85;;
17177;SDS011;8704;52.006;4.374;2023-09-30T07:47:30;57.20;;;44.80;;
17177;SDS011;8704;52.006;4.374;2023-09-30T07:50:00;56.30;;;42.75;;
17177;SDS011;8704;52.006;4.374;2023-09-30T07:52:28;56.83;;;41.50;;
17177;SDS011;8704;52.006;4.374;2023-09-30T07:54:56;51.33;;;41.63;;
17177;SDS011;8704;52.006;4.374;2023-09-30T07:57:25;49.88;;;38.00;;
17177;SDS011;8704;52.006;4.374;2023-09-30T07:59:54;41.63;;;30.98;;
17177;SDS011;8704;52.006;4.374;2023-09-30T08:02:22;42.50;;;31.35;;
17177;SDS011;8704;52.006;4.374;2023-09-30T08:04:54;49.13;;;31.57;;
17177;SDS011;8704;52.006;4.374;2023-09-30T08:07:22;42.05;;;29.15;;
17177;SDS011;8704;52.006;4.374;2023-09-30T08:09:50;33.08;;;25.60;;
17177;SDS011;8704;52.006;4.374;2023-09-30T08:12:18;33.33;;;22.23;;
17177;SDS011;8704;52.006;4.374;2023-09-30T08:14:46;30.90;;;22.08;;
17177;SDS011;8704;52.006;4.374;2023-09-30T08:17:16;35.38;;;22.20;;
17177;SDS011;8704;52.006;4.374;2023-09-30T08:19:44;28.20;;;20.67;;
17177;SDS011;8704;52.006;4.374;2023-09-30T08:22:14;28.92;;;18.15;;
17177;SDS011;8704;52.006;4.374;2023-09-30T08:24:42;26.63;;;17.88;;
17177;SDS011;8704;52.006;4.374;2023-09-30T08:27:10;24.52;;;15.90;;
17177;SDS011;8704;52.006;4.374;2023-09-30T08:29:38;22.33;;;15.82;;
17177;SDS011;8704;52.006;4.374;2023-09-30T08:32:07;25.08;;;15.80;;
17177;SDS011;8704;52.006;4.374;2023-09-30T08:34:36;25.70;;;15.15;;
17177;SDS011;8704;52.006;4.374;2023-09-30T08:37:05;21.65;;;14.15;;
17177;SDS011;8704;52.006;4.374;2023-09-30T08:39:37;24.38;;;12.38;;
17177;SDS011;8704;52.006;4.374;2023-09-30T08:44:36;21.70;;;12.65;;
17177;SDS011;8704;52.006;4.374;2023-09-30T08:47:05;18.55;;;11.48;;
17177;SDS011;8704;52.006;4.374;2023-09-30T08:49:37;25.33;;;12.27;;
17177;SDS011;8704;52.006;4.374;2023-09-30T08:52:06;21.27;;;11.27;;
17177;SDS011;8704;52.006;4.374;2023-09-30T08:54:36;20.55;;;11.00;;
17177;SDS011;8704;52.006;4.374;2023-09-30T08:57:05;20.30;;;11.25;;
17177;SDS011;8704;52.006;4.374;2023-09-30T08:59:36;20.60;;;10.85;;
17177;SDS011;8704;52.006;4.374;2023-09-30T09:02:06;20.20;;;10.70;;
17177;SDS011;8704;52.006;4.374;2023-09-30T09:04:38;20.38;;;10.23;;
17177;SDS011;8704;52.006;4.374;2023-09-30T09:07:06;19.38;;;9.60;;
17177;SDS011;8704;52.006;4.374;2023-09-30T09:09:34;19.20;;;9.55;;
17177;SDS011;8704;52.006;4.374;2023-09-30T09:12:03;18.67;;;8.52;;
17177;SDS011;8704;52.006;4.374;2023-09-30T09:14:38;18.50;;;7.55;;
17177;SDS011;8704;52.006;4.374;2023-09-30T09:17:07;19.83;;;6.97;;
17177;SDS011;8704;52.006;4.374;2023-09-30T09:19:36;14.20;;;7.07;;
17177;SDS011;8704;52.006;4.374;2023-09-30T09:22:05;14.57;;;6.18;;
17177;SDS011;8704;52.006;4.374;2023-09-30T09:24:34;16.13;;;6.38;;
17177;SDS011;8704;52.006;4.374;2023-09-30T09:27:04;16.08;;;6.32;;
17177;SDS011;8704;52.006;4.374;2023-09-30T09:29:33;11.27;;;5.13;;
17177;SDS011;8704;52.006;4.374;2023-09-30T09:32:09;12.95;;;4.90;;
17177;SDS011;8704;52.006;4.374;2023-09-30T09:34:40;13.48;;;5.50;;
17177;SDS011;8704;52.006;4.374;2023-09-30T09:37:16;13.63;;;4.53;;
17177;SDS011;8704;52.006;4.374;2023-09-30T09:39:49;13.95;;;4.38;;
17177;SDS011;8704;52.006;4.374;2023-09-30T09:42:24;11.32;;;3.85;;
17177;SDS011;8704;52.006;4.374;2023-09-30T09:44:55;11.02;;;3.33;;
17177;SDS011;8704;52.006;4.374;2023-09-30T09:47:24;12.73;;;3.83;;
17177;SDS011;8704;52.006;4.374;2023-09-30T09:49:54;10.68;;;3.63;;
17177;SDS011;8704;52.006;4.374;2023-09-30T09:52:25;10.23;;;3.67;;
17177;SDS011;8704;52.006;4.374;2023-09-30T09:54:54;11.88;;;3.50;;
17177;SDS011;8704;52.006;4.374;2023-09-30T09:57:24;9.73;;;3.38;;
17177;SDS011;8704;52.006;4.374;2023-09-30T09:59:55;8.93;;;3.33;;
17177;SDS011;8704;52.006;4.374;2023-09-30T10:02:25;13.18;;;3.67;;
17177;SDS011;8704;52.006;4.374;2023-09-30T10:04:56;12.98;;;3.70;;
17177;SDS011;8704;52.006;4.374;2023-09-30T10:07:26;8.15;;;2.83;;
17177;SDS011;8704;52.006;4.374;2023-09-30T10:09:57;8.13;;;3.22;;
17177;SDS011;8704;52.006;4.374;2023-09-30T10:12:35;12.65;;;3.63;;
17177;SDS011;8704;52.006;4.374;2023-09-30T10:18:08;10.85;;;3.50;;
17177;SDS011;8704;52.006;4.374;2023-09-30T10:20:42;10.77;;;3.20;;
17177;SDS011;8704;52.006;4.374;2023-09-30T10:23:18;11.50;;;3.13;;
17177;SDS011;8704;52.006;4.374;2023-09-30T10:25:54;11.70;;;3.50;;
17177;SDS011;8704;52.006;4.374;2023-09-30T10:28:42;10.23;;;3.00;;
17177;SDS011;8704;52.006;4.374;2023-09-30T10:31:14;13.90;;;3.92;;
17177;SDS011;8704;52.006;4.374;2023-09-30T10:36:50;11.02;;;4.00;;
17177;SDS011;8704;52.006;4.374;2023-09-30T10:48:31;10.20;;;3.90;;
17177;SDS011;8704;52.006;4.374;2023-09-30T10:53:50;11.73;;;4.07;;
17177;SDS011;8704;52.006;4.374;2023-09-30T10:56:20;9.50;;;4.18;;
17177;SDS011;8704;52.006;4.374;2023-09-30T10:58:49;14.25;;;4.60;;
17177;SDS011;8704;52.006;4.374;2023-09-30T11:01:18;14.85;;;3.97;;
17177;SDS011;8704;52.006;4.374;2023-09-30T11:03:48;12.02;;;4.60;;
17177;SDS011;8704;52.006;4.374;2023-09-30T11:06:20;11.90;;;4.32;;
17177;SDS011;8704;52.006;4.374;2023-09-30T11:08:52;10.18;;;4.18;;
17177;SDS011;8704;52.006;4.374;2023-09-30T11:11:35;10.30;;;4.00;;
17177;SDS011;8704;52.006;4.374;2023-09-30T11:14:08;12.60;;;4.30;;
17177;SDS011;8704;52.006;4.374;2023-09-30T11:16:44;10.23;;;3.75;;
17177;SDS011;8704;52.006;4.374;2023-09-30T11:19:13;10.07;;;3.92;;
17177;SDS011;8704;52.006;4.374;2023-09-30T11:21:42;8.98;;;3.40;;
17177;SDS011;8704;52.006;4.374;2023-09-30T11:24:13;9.23;;;3.72;;
17177;SDS011;8704;52.006;4.374;2023-09-30T11:26:41;9.20;;;3.47;;
17177;SDS011;8704;52.006;4.374;2023-09-30T11:29:10;11.82;;;3.78;;
17177;SDS011;8704;52.006;4.374;2023-09-30T11:31:39;14.68;;;3.90;;
17177;SDS011;8704;52.006;4.374;2023-09-30T11:34:09;8.55;;;3.70;;
17177;SDS011;8704;52.006;4.374;2023-09-30T11:36:38;11.88;;;3.40;;
17177;SDS011;8704;52.006;4.374;2023-09-30T11:39:08;11.45;;;3.80;;
17177;SDS011;8704;52.006;4.374;2023-09-30T11:41:41;11.75;;;3.75;;
17177;SDS011;8704;52.006;4.374;2023-09-30T11:44:10;11.20;;;4.40;;
17177;SDS011;8704;52.006;4.374;2023-09-30T11:46:48;10.80;;;3.77;;
17177;SDS011;8704;52.006;4.374;2023-09-30T11:49:29;9.30;;;3.60;;
17177;SDS011;8704;52.006;4.374;2023-09-30T11:51:59;8.43;;;3.55;;
17177;SDS011;8704;52.006;4.374;2023-09-30T11:54:31;9.65;;;3.85;;
17177;SDS011;8704;52.006;4.374;2023-09-30T11:57:01;10.15;;;4.25;;
17177;SDS011;8704;52.006;4.374;2023-09-30T11:59:29;10.25;;;4.05;;
17177;SDS011;8704;52.006;4.374;2023-09-30T12:01:58;10.00;;;4.47;;
17177;SDS011;8704;52.006;4.374;2023-09-30T12:04:29;10.05;;;4.35;;
17177;SDS011;8704;52.006;4.374;2023-09-30T12:06:57;9.82;;;4.05;;
17177;SDS011;8704;52.006;4.374;2023-09-30T12:09:25;10.80;;;3.70;;
17177;SDS011;8704;52.006;4.374;2023-09-30T12:11:54;10.85;;;3.97;;
17177;SDS011;8704;52.006;4.374;2023-09-30T12:14:25;12.43;;;4.53;;
17177;SDS011;8704;52.006;4.374;2023-09-30T12:16:56;10.52;;;4.60;;
17177;SDS011;8704;52.006;4.374;2023-09-30T12:19:24;11.57;;;5.00;;
17177;SDS011;8704;52.006;4.374;2023-09-30T12:21:53;12.52;;;5.18;;
17177;SDS011;8704;52.006;4.374;2023-09-30T12:24:22;12.70;;;5.78;;
17177;SDS011;8704;52.006;4.374;2023-09-30T12:26:51;16.63;;;5.43;;
17177;SDS011;8704;52.006;4.374;2023-09-30T12:29:19;14.98;;;5.88;;
17177;SDS011;8704;52.006;4.374;2023-09-30T12:31:51;13.82;;;5.40;;
17177;SDS011;8704;52.006;4.374;2023-09-30T12:36:50;12.70;;;4.78;;
17177;SDS011;8704;52.006;4.374;2023-09-30T12:39:18;12.05;;;4.97;;
17177;SDS011;8704;52.006;4.374;2023-09-30T12:41:52;12.65;;;4.75;;
17177;SDS011;8704;52.006;4.374;2023-09-30T12:44:20;10.68;;;4.28;;
17177;SDS011;8704;52.006;4.374;2023-09-30T12:46:50;9.43;;;4.22;;
17177;SDS011;8704;52.006;4.374;2023-09-30T12:49:19;10.57;;;4.30;;
17177;SDS011;8704;52.006;4.374;2023-09-30T12:51:47;13.60;;;4.63;;
17177;SDS011;8704;52.006;4.374;2023-09-30T12:54:15;9.30;;;4.32;;
17177;SDS011;8704;52.006;4.374;2023-09-30T12:56:45;8.75;;;3.47;;
17177;SDS011;8704;52.006;4.374;2023-09-30T12:59:14;11.15;;;3.53;;
17177;SDS011;8704;52.006;4.374;2023-09-30T13:01:42;10.05;;;3.35;;
17177;SDS011;8704;52.006;4.374;2023-09-30T13:04:12;8.23;;;3.08;;
17177;SDS011;8704;52.006;4.374;2023-09-30T13:06:41;20.73;;;7.95;;
17177;SDS011;8704;52.006;4.374;2023-09-30T13:09:10;14.70;;;3.78;;
17177;SDS011;8704;52.006;4.374;2023-09-30T13:11:39;24.63;;;9.73;;
17177;SDS011;8704;52.006;4.374;2023-09-30T13:14:08;13.07;;;4.57;;
17177;SDS011;8704;52.006;4.374;2023-09-30T13:16:38;15.95;;;4.20;;
17177;SDS011;8704;52.006;4.374;2023-09-30T13:19:06;8.40;;;3.42;;
17177;SDS011;8704;52.006;4.374;2023-09-30T13:21:36;9.05;;;3.13;;
17177;SDS011;8704;52.006;4.374;2023-09-30T13:24:04;10.38;;;3.38;;
17177;SDS011;8704;52.006;4.374;2023-09-30T13:26:35;10.23;;;3.40;;
17177;SDS011;8704;52.006;4.374;2023-09-30T13:29:03;12.85;;;3.45;;
17177;SDS011;8704;52.006;4.374;2023-09-30T13:31:32;11.85;;;3.70;;
17177;SDS011;8704;52.006;4.374;2023-09-30T13:34:00;13.18;;;3.38;;
17177;SDS011;8704;52.006;4.374;2023-09-30T13:36:29;11.88;;;3.25;;
17177;SDS011;8704;52.006;4.374;2023-09-30T13:38:59;9.60;;;3.00;;
17177;SDS011;8704;52.006;4.374;2023-09-30T13:41:27;10.30;;;3.30;;
17177;SDS011;8704;52.006;4.374;2023-09-30T13:43:55;6.50;;;3.15;;
17177;SDS011;8704;52.006;4.374;2023-09-30T13:46:23;9.75;;;3.53;;
17177;SDS011;8704;52.006;4.374;2023-09-30T13:48:54;10.57;;;3.20;;
17177;SDS011;8704;52.006;4.374;2023-09-30T13:51:22;14.07;;;3.80;;
17177;SDS011;8704;52.006;4.374;2023-09-30T13:53:50;7.95;;;2.85;;
17177;SDS011;8704;52.006;4.374;2023-09-30T13:56:21;11.88;;;3.10;;
17177;SDS011;8704;52.006;4.374;2023-09-30T13:58:49;10.77;;;3.17;;
17177;SDS011;8704;52.006;4.374;2023-09-30T14:01:17;11.20;;;3.55;;
17177;SDS011;8704;52.006;4.374;2023-09-30T14:03:46;8.63;;;3.13;;
17177;SDS011;8704;52.006;4.374;2023-09-30T14:06:14;12.52;;;3.20;;
17177;SDS011;8704;52.006;4.374;2023-09-30T14:08:42;10.60;;;3.40;;
17177;SDS011;8704;52.006;4.374;2023-09-30T14:11:11;7.68;;;2.50;;
17177;SDS011;8704;52.006;4.374;2023-09-30T14:13:40;9.45;;;2.72;;
17177;SDS011;8704;52.006;4.374;2023-09-30T14:16:08;8.10;;;3.00;;
17177;SDS011;8704;52.006;4.374;2023-09-30T14:18:37;10.15;;;3.15;;
17177;SDS011;8704;52.006;4.374;2023-09-30T14:21:05;9.85;;;3.08;;
17177;SDS011;8704;52.006;4.374;2023-09-30T14:23:33;8.60;;;2.80;;
17177;SDS011;8704;52.006;4.374;2023-09-30T14:26:05;9.65;;;2.97;;
17177;SDS011;8704;52.006;4.374;2023-09-30T14:31:06;11.55;;;3.45;;
17177;SDS011;8704;52.006;4.374;2023-09-30T14:33:34;9.43;;;3.58;;
17177;SDS011;8704;52.006;4.374;2023-09-30T14:36:03;9.93;;;3.05;;
17177;SDS011;8704;52.006;4.374;2023-09-30T14:38:32;11.13;;;3.30;;
17177;SDS011;8704;52.006;4.374;2023-09-30T14:41:00;8.13;;;3.05;;
17177;SDS011;8704;52.006;4.374;2023-09-30T14:43:28;8.35;;;2.92;;
17177;SDS011;8704;52.006;4.374;2023-09-30T14:45:56;9.85;;;3.25;;
17177;SDS011;8704;52.006;4.374;2023-09-30T14:48:26;10.88;;;2.92;;
17177;SDS011;8704;52.006;4.374;2023-09-30T14:50:54;12.15;;;3.35;;
17177;SDS011;8704;52.006;4.374;2023-09-30T14:53:23;12.43;;;3.65;;
17177;SDS011;8704;52.006;4.374;2023-09-30T14:55:51;8.65;;;3.30;;
17177;SDS011;8704;52.006;4.374;2023-09-30T14:58:19;9.10;;;3.42;;
17177;SDS011;8704;52.006;4.374;2023-09-30T15:00:47;9.95;;;3.25;;
17177;SDS011;8704;52.006;4.374;2023-09-30T15:03:16;8.07;;;3.22;;
17177;SDS011;8704;52.006;4.374;2023-09-30T15:05:45;8.95;;;3.70;;
17177;SDS011;8704;52.006;4.374;2023-09-30T15:08:13;7.30;;;3.03;;
17177;SDS011;8704;52.006;4.374;2023-09-30T15:10:42;10.60;;;3.17;;
17177;SDS011;8704;52.006;4.374;2023-09-30T15:13:10;10.98;;;3.75;;
17177;SDS011;8704;52.006;4.374;2023-09-30T15:15:38;11.05;;;3.45;;
17177;SDS011;8704;52.006;4.374;2023-09-30T15:18:07;12.57;;;3.85;;
17177;SDS011;8704;52.006;4.374;2023-09-30T15:20:37;8.00;;;2.92;;
17177;SDS011;8704;52.006;4.374;2023-09-30T15:23:07;13.23;;;3.58;;
17177;SDS011;8704;52.006;4.374;2023-09-30T15:25:39;12.23;;;3.25;;